createdAt,value
2019-06-07T00:01:08.419Z,65.94
2019-06-07T00:03:35.088Z,65.98
2019-06-07T00:06:03.175Z,66.17
2019-06-07T00:08:33.115Z,66.17
2019-06-07T00:11:00.821Z,66.02
2019-06-07T00:13:30.302Z,66.02
2019-06-07T00:15:57.818Z,66.36
2019-06-07T00:18:26.382Z,66.40
2019-06-07T00:20:53.863Z,66.44
2019-06-07T00:23:22.895Z,66.56
2019-06-07T00:25:50.990Z,66.56
2019-06-07T00:28:20.238Z,66.52
2019-06-07T00:30:51.933Z,66.54
2019-06-07T00:33:23.868Z,66.58
2019-06-07T00:35:48.444Z,66.65
2019-06-07T00:38:18.960Z,66.71
2019-06-07T00:40:45.406Z,66.58
2019-06-07T00:43:14.191Z,66.58
2019-06-07T00:45:42.315Z,66.76
2019-06-07T00:48:16.134Z,66.76
2019-06-07T00:50:39.106Z,66.98
2019-06-07T00:53:18.231Z,67.54
2019-06-07T00:55:38.945Z,67.26
2019-06-07T00:58:06.559Z,67.26
2019-06-07T01:00:34.206Z,67.36
2019-06-07T01:03:01.787Z,67.36
2019-06-07T01:05:31.551Z,67.66
2019-06-07T01:08:01.006Z,67.66
2019-06-07T01:10:51.719Z,68.07
2019-06-07T01:12:59.924Z,68.07
2019-06-07T01:15:29.261Z,67.98
2019-06-07T01:18:36.061Z,68.22
2019-06-07T01:20:26.781Z,68.22
2019-06-07T01:22:56.938Z,68.01
2019-06-07T01:25:26.388Z,68.01
2019-06-07T01:27:55.119Z,68.05
2019-06-07T01:30:24.596Z,68.07
2019-06-07T01:32:51.975Z,68.09
2019-06-07T01:35:20.604Z,68.15
2019-06-07T01:37:49.325Z,68.16
2019-06-07T01:40:17.774Z,68.22
2019-06-07T01:42:46.284Z,68.24
2019-06-07T01:45:14.561Z,68.24
2019-06-07T01:47:45.043Z,68.68
2019-06-07T01:50:12.700Z,68.80
2019-06-07T01:52:40.375Z,69.23
2019-06-07T01:55:08.430Z,69.62
2019-06-07T01:57:47.489Z,69.99
2019-06-07T02:00:05.494Z,70.04
2019-06-07T02:02:33.097Z,69.65
2019-06-07T02:05:01.158Z,69.69
2019-06-07T02:07:32.804Z,69.69
2019-06-07T02:09:58.355Z,69.74
2019-06-07T02:12:37.564Z,69.70
2019-06-07T02:14:55.692Z,69.70
2019-06-07T02:17:26.301Z,69.96
2019-06-07T02:19:52.636Z,69.37
2019-06-07T02:22:22.889Z,69.37
2019-06-07T02:25:33.451Z,69.53
2019-06-07T02:27:20.745Z,69.27
2019-06-07T02:29:48.493Z,69.27
2019-06-07T02:32:16.583Z,69.26
2019-06-07T02:34:44.226Z,69.24
2019-06-07T02:37:11.811Z,69.28
2019-06-07T02:39:41.001Z,69.04
2019-06-07T02:42:09.427Z,69.88
2019-06-07T02:44:40.668Z,69.73
2019-06-07T02:47:08.375Z,69.73
2019-06-07T02:49:40.872Z,69.89
2019-06-07T02:52:05.776Z,69.58
2019-06-07T02:54:38.978Z,69.58
2019-06-07T02:57:02.492Z,69.34
2019-06-07T02:59:57.165Z,69.67
2019-06-07T03:01:59.900Z,69.67
2019-06-07T03:04:29.534Z,69.84
2019-06-07T03:06:57.260Z,70.25
2019-06-07T03:09:26.366Z,69.68
2019-06-07T03:11:54.105Z,69.85
2019-06-07T03:14:22.076Z,69.85
2019-06-07T03:16:57.332Z,69.47
2019-06-07T03:19:37.312Z,69.47
2019-06-07T03:22:02.077Z,69.74
2019-06-07T03:24:33.139Z,69.40
2019-06-07T03:29:29.978Z,69.84
2019-06-07T03:31:58.029Z,69.84
2019-06-07T03:34:28.793Z,69.77
2019-06-07T03:36:55.660Z,69.77
2019-06-07T03:39:23.310Z,69.48
2019-06-07T03:42:05.645Z,69.47
2019-06-07T03:44:20.226Z,69.44
2019-06-07T03:46:47.721Z,69.26
2019-06-07T03:49:15.447Z,69.37
2019-06-07T03:51:43.415Z,69.37
2019-06-07T03:54:10.994Z,69.22
2019-06-07T03:56:40.960Z,69.22
2019-06-07T03:59:07.821Z,69.22
2019-06-07T04:01:37.667Z,68.92
2019-06-07T04:04:04.820Z,68.92
2019-06-07T04:06:34.418Z,69.00
2019-06-07T04:09:02.232Z,68.86
2019-06-07T04:11:30.057Z,68.77
2019-06-07T04:13:58.009Z,68.64
2019-06-07T04:16:25.668Z,68.74
2019-06-07T04:18:53.650Z,68.74
2019-06-07T04:21:21.330Z,68.24
2019-06-07T04:23:48.985Z,68.10
2019-06-07T04:26:16.729Z,67.91
2019-06-07T04:31:18.736Z,67.28
2019-06-07T04:33:46.390Z,66.90
2019-06-07T04:36:14.491Z,66.90
2019-06-07T04:38:42.748Z,66.82
2019-06-07T04:41:10.863Z,66.81
2019-06-07T04:43:41.089Z,67.24
2019-06-07T04:46:08.201Z,66.55
2019-06-07T04:48:40.175Z,66.55
2019-06-07T04:51:05.906Z,66.65
2019-06-07T04:53:35.326Z,66.84
2019-06-07T04:56:03.103Z,66.84
2019-06-07T04:58:31.482Z,66.34
2019-06-07T05:01:03.409Z,65.65
2019-06-07T05:03:37.049Z,65.61
2019-06-07T05:06:07.118Z,65.47
2019-06-07T05:08:36.157Z,65.47
2019-06-07T05:11:04.131Z,65.05
2019-06-07T05:13:36.725Z,64.74
2019-06-07T05:16:03.156Z,64.38
2019-06-07T05:18:33.689Z,64.00
2019-06-07T05:21:00.471Z,63.58
2019-06-07T05:24:02.614Z,62.97
2019-06-07T05:25:57.661Z,62.97
2019-06-07T05:28:25.282Z,61.93
2019-06-07T05:31:05.080Z,61.93
2019-06-07T05:33:27.199Z,62.00
2019-06-07T05:35:58.311Z,62.28
2019-06-07T05:38:26.096Z,62.28
2019-06-07T05:40:56.098Z,61.78
2019-06-07T05:43:23.717Z,61.21
2019-06-07T05:45:51.321Z,61.04
2019-06-07T05:48:18.836Z,60.82
2019-06-07T05:50:56.117Z,60.59
2019-06-07T05:53:16.807Z,60.59
2019-06-07T05:55:47.524Z,60.41
2019-06-07T05:58:14.129Z,60.21
2019-06-07T06:00:44.594Z,60.21
2019-06-07T06:03:11.039Z,60.23
2019-06-07T06:05:43.281Z,60.03
2019-06-07T06:08:08.848Z,59.82
2019-06-07T06:10:37.679Z,59.82
2019-06-07T06:13:08.737Z,59.69
2019-06-07T06:15:45.281Z,59.55
2019-06-07T06:18:07.216Z,59.37
2019-06-07T06:21:00.961Z,59.61
2019-06-07T06:23:04.753Z,59.05
2019-06-07T06:25:34.634Z,59.05
2019-06-07T06:28:10.927Z,58.78
2019-06-07T06:30:31.938Z,58.78
2019-06-07T06:32:59.539Z,58.83
2019-06-07T06:35:30.538Z,58.61
2019-06-07T06:38:05.286Z,58.35
2019-06-07T06:40:33.194Z,58.04
2019-06-07T06:43:03.152Z,57.85
2019-06-07T06:45:36.332Z,57.78
2019-06-07T06:48:04.145Z,57.75
2019-06-07T06:50:31.744Z,57.80
2019-06-07T06:52:59.320Z,57.66
2019-06-07T06:55:27.362Z,57.66
2019-06-07T06:57:57.880Z,57.49
2019-06-07T07:00:43.080Z,57.32
2019-06-07T07:05:26.745Z,57.05
2019-06-07T07:07:54.287Z,56.96
2019-06-07T07:10:22.174Z,56.96
2019-06-07T07:12:51.218Z,56.63
2019-06-07T07:15:18.986Z,56.15
2019-06-07T07:18:03.690Z,56.15
2019-06-07T07:20:19.915Z,56.07
2019-06-07T07:22:50.297Z,55.37
2019-06-07T07:25:17.397Z,55.29
2019-06-07T07:27:47.014Z,55.29
2019-06-07T07:30:36.066Z,55.49
2019-06-07T07:32:45.590Z,55.49
2019-06-07T07:35:13.019Z,55.97
2019-06-07T07:37:40.611Z,55.98
2019-06-07T07:40:55.305Z,56.15
2019-06-07T07:42:37.643Z,56.15
2019-06-07T07:45:05.130Z,55.95
2019-06-07T07:47:33.593Z,55.95
2019-06-07T07:50:01.117Z,56.07
2019-06-07T07:52:29.169Z,55.84
2019-06-07T07:54:58.379Z,55.84
2019-06-07T07:57:26.508Z,55.48
2019-06-07T08:00:25.219Z,55.48
2019-06-07T08:02:23.679Z,55.26
2019-06-07T08:05:16.574Z,55.42
2019-06-07T08:07:22.074Z,55.42
2019-06-07T08:09:51.447Z,54.91
2019-06-07T08:12:24.456Z,54.78
2019-06-07T08:14:57.451Z,54.67
2019-06-07T08:17:21.916Z,54.46
2019-06-07T08:19:51.607Z,53.68
2019-06-07T08:22:20.878Z,53.68
2019-06-07T08:24:50.441Z,54.25
2019-06-07T08:27:26.319Z,54.05
2019-06-07T08:30:06.446Z,54.05
2019-06-07T08:32:17.760Z,53.40
2019-06-07T08:34:45.414Z,53.22
2019-06-07T08:37:13.285Z,53.08
2019-06-07T08:39:40.905Z,52.87
2019-06-07T08:42:17.622Z,52.14
2019-06-07T08:44:43.797Z,52.14
2019-06-07T08:47:20.476Z,52.31
2019-06-07T08:49:42.387Z,52.24
2019-06-07T08:52:12.251Z,51.41
2019-06-07T08:54:39.709Z,51.41
2019-06-07T08:57:20.693Z,51.32
2019-06-07T08:59:37.917Z,51.32
2019-06-07T09:02:20.953Z,50.80
2019-06-07T09:04:34.932Z,50.80
2019-06-07T09:07:18.954Z,50.67
2019-06-07T09:09:39.072Z,50.56
2019-06-07T09:12:11.411Z,50.38
2019-06-07T09:14:57.551Z,50.17
2019-06-07T09:17:11.719Z,49.95
2019-06-07T09:19:38.229Z,49.17
2019-06-07T09:22:11.089Z,49.17
2019-06-07T09:24:38.992Z,49.29
2019-06-07T09:27:08.387Z,48.99
2019-06-07T09:29:36.241Z,48.72
2019-06-07T09:32:05.933Z,48.72
2019-06-07T09:34:33.546Z,48.19
2019-06-07T09:37:10.941Z,48.03
2019-06-07T09:39:34.362Z,47.77
2019-06-07T09:42:08.377Z,47.40
2019-06-07T09:44:31.519Z,46.74
2019-06-07T09:47:19.990Z,46.29
2019-06-07T09:49:32.891Z,46.29
2019-06-07T09:52:02.596Z,46.48
2019-06-07T09:55:03.150Z,46.25
2019-06-07T09:57:00.379Z,46.20
2019-06-07T09:59:28.242Z,46.20
2019-06-07T10:01:59.049Z,45.05
2019-06-07T10:04:31.226Z,43.99
2019-06-07T10:07:03.414Z,43.99
2019-06-07T10:10:08.980Z,43.90
2019-06-07T10:11:56.608Z,42.83
2019-06-07T10:14:24.161Z,42.83
2019-06-07T10:16:51.679Z,42.80
2019-06-07T10:19:19.597Z,41.91
2019-06-07T10:22:23.263Z,41.91
2019-06-07T10:24:25.222Z,41.16
2019-06-07T10:27:13.786Z,41.16
2019-06-07T10:29:41.739Z,40.54
2019-06-07T10:32:11.581Z,40.11
2019-06-07T10:34:39.282Z,39.60
2019-06-07T10:37:09.834Z,39.41
2019-06-07T10:39:48.040Z,38.16
2019-06-07T10:42:07.800Z,38.16
2019-06-07T10:44:37.321Z,38.58
2019-06-07T10:47:08.192Z,38.36
2019-06-07T10:49:38.756Z,37.96
2019-06-07T10:52:10.381Z,37.76
2019-06-07T10:54:38.316Z,37.26
2019-06-07T10:59:52.654Z,36.49
2019-06-07T11:02:21.849Z,36.13
2019-06-07T11:04:49.484Z,35.86
2019-06-07T11:07:20.393Z,35.68
2019-06-07T11:10:06.063Z,35.80
2019-06-07T11:12:22.448Z,35.89
2019-06-07T11:17:53.210Z,35.98
2019-06-07T11:18:21.042Z,35.84
2019-06-07T11:20:21.242Z,35.65
2019-06-07T11:22:51.064Z,35.65
2019-06-07T11:25:19.038Z,34.55
2019-06-07T11:27:47.025Z,33.88
2019-06-07T11:30:14.661Z,33.05
2019-06-07T11:32:42.199Z,33.05
2019-06-07T11:35:11.623Z,33.05
2019-06-07T11:37:40.352Z,33.05
2019-06-07T11:40:27.932Z,32.34
2019-06-07T11:45:28.843Z,32.00
2019-06-07T11:47:59.764Z,32.00
2019-06-07T11:50:26.136Z,31.93
2019-06-07T11:52:53.754Z,31.72
2019-06-07T11:55:23.699Z,31.18
2019-06-07T11:57:53.154Z,30.96
2019-06-07T12:00:21.122Z,31.32
2019-06-07T12:02:52.429Z,31.32
2019-06-07T12:05:22.934Z,30.55
2019-06-07T12:07:50.558Z,30.35
2019-06-07T12:10:22.699Z,30.37
2019-06-07T12:12:47.751Z,30.06
2019-06-07T12:15:15.329Z,29.61
2019-06-07T12:17:43.274Z,29.53
2019-06-07T12:20:15.286Z,28.90
2019-06-07T12:22:42.964Z,28.90
2019-06-07T12:25:19.711Z,28.67
2019-06-07T12:27:47.572Z,28.50
2019-06-07T12:30:26.028Z,27.91
2019-06-07T12:32:48.269Z,27.91
2019-06-07T12:35:15.950Z,28.17
2019-06-07T12:37:45.179Z,28.22
2019-06-07T12:40:25.510Z,28.13
2019-06-07T12:42:42.063Z,27.99
2019-06-07T12:45:10.176Z,27.55
2019-06-07T12:47:37.796Z,27.15
2019-06-07T12:50:06.588Z,27.30
2019-06-07T12:52:34.556Z,27.40
2019-06-07T12:55:03.241Z,27.08
2019-06-07T12:57:34.517Z,26.92
2019-06-07T13:00:02.949Z,26.70
2019-06-07T13:02:30.529Z,26.24
2019-06-07T13:04:58.031Z,26.15
2019-06-07T13:07:25.880Z,27.60
2019-06-07T13:09:53.494Z,28.64
2019-06-07T13:12:28.227Z,30.03
2019-06-07T13:15:02.182Z,30.11
2019-06-07T13:17:32.868Z,27.95
2019-06-07T13:20:00.390Z,27.95
2019-06-07T13:22:32.876Z,28.57
2019-06-07T13:25:00.091Z,28.57
2019-06-07T13:27:32.792Z,26.84
2019-06-07T13:29:58.573Z,26.47
2019-06-07T13:32:45.198Z,26.10
2019-06-07T13:35:05.693Z,26.10
2019-06-07T13:37:35.161Z,25.98
2019-06-07T13:40:02.693Z,25.48
2019-06-07T13:42:34.904Z,25.30
2019-06-07T13:44:59.885Z,25.07
2019-06-07T13:47:27.649Z,24.47
2019-06-07T13:49:55.566Z,24.96
2019-06-07T13:52:27.380Z,24.96
2019-06-07T13:55:01.192Z,25.71
2019-06-07T13:57:26.319Z,27.15
2019-06-07T13:59:58.245Z,28.09
2019-06-07T14:02:29.850Z,29.04
2019-06-07T14:05:05.801Z,29.72
2019-06-07T14:07:33.880Z,30.27
2019-06-07T14:10:01.502Z,30.59
2019-06-07T14:12:29.655Z,30.83
2019-06-07T14:14:59.823Z,30.96
2019-06-07T14:17:28.312Z,31.17
2019-06-07T14:19:56.586Z,31.36
2019-06-07T14:22:26.925Z,29.32
2019-06-07T14:24:54.515Z,29.32
2019-06-07T14:27:23.325Z,27.21
2019-06-07T14:29:52.976Z,25.93
2019-06-07T14:32:22.497Z,24.90
2019-06-07T14:34:51.843Z,24.26
2019-06-07T14:37:22.893Z,23.73
2019-06-07T14:39:50.395Z,23.37
2019-06-07T14:42:18.033Z,23.27
2019-06-07T14:44:46.023Z,23.02
2019-06-07T14:47:13.645Z,22.95
2019-06-07T14:49:41.256Z,22.96
2019-06-07T14:52:09.138Z,22.83
2019-06-07T14:54:39.281Z,22.95
2019-06-07T14:57:06.831Z,23.52
2019-06-07T14:59:38.698Z,24.67
2019-06-07T15:02:08.754Z,25.69
2019-06-07T15:04:36.351Z,26.20
2019-06-07T15:07:04.347Z,26.64
2019-06-07T15:09:33.018Z,27.15
2019-06-07T15:12:00.684Z,26.60
2019-06-07T15:14:29.342Z,25.76
2019-06-07T15:16:59.087Z,24.89
2019-06-07T15:19:26.801Z,23.72
2019-06-07T15:21:57.484Z,22.69
2019-06-07T15:24:25.064Z,22.22
2019-06-07T15:26:52.595Z,22.87
2019-06-07T15:29:24.755Z,24.11
2019-06-07T15:31:52.371Z,25.65
2019-06-07T15:34:22.741Z,26.97
2019-06-07T15:36:50.836Z,28.10
2019-06-07T15:39:18.528Z,29.04
2019-06-07T15:41:47.305Z,29.79
2019-06-07T15:44:15.255Z,30.25
2019-06-07T15:46:45.108Z,30.88
2019-06-07T15:49:12.647Z,31.34
2019-06-07T15:51:42.345Z,31.75
2019-06-07T15:54:10.272Z,32.06
2019-06-07T15:56:41.877Z,32.01
2019-06-07T15:59:09.126Z,32.07
2019-06-07T16:01:41.876Z,32.18
2019-06-07T16:04:07.988Z,32.32
2019-06-07T16:06:40.585Z,32.62
2019-06-07T16:09:11.575Z,32.82
2019-06-07T16:11:43.239Z,33.04
2019-06-07T16:14:10.774Z,33.24
2019-06-07T16:16:38.999Z,33.38
2019-06-07T16:19:12.339Z,33.46
2019-06-07T16:21:39.756Z,33.57
2019-06-07T16:24:07.542Z,33.79
2019-06-07T16:26:40.222Z,34.06
2019-06-07T16:29:04.317Z,34.43
2019-06-07T16:31:32.283Z,34.65
2019-06-07T16:34:05.041Z,34.91
2019-06-07T16:36:40.253Z,35.05
2019-06-07T16:39:08.452Z,35.18
2019-06-07T16:41:42.853Z,35.30
2019-06-07T16:44:13.698Z,35.43
2019-06-07T16:46:42.772Z,35.68
2019-06-07T16:49:12.452Z,35.98
2019-06-07T16:51:43.262Z,37.73
2019-06-07T16:54:11.199Z,39.88
2019-06-07T16:56:44.969Z,44.04
2019-06-07T16:59:08.306Z,50.07
2019-06-07T17:01:37.002Z,50.07
2019-06-07T17:04:07.838Z,51.38
2019-06-07T17:06:35.771Z,52.49
2019-06-07T17:09:03.318Z,52.79
2019-06-07T17:11:31.246Z,52.84
2019-06-07T17:14:01.574Z,53.50
2019-06-07T17:16:29.079Z,53.50
2019-06-07T17:18:57.064Z,53.51
2019-06-07T17:21:24.761Z,54.01
2019-06-07T17:23:52.361Z,54.52
2019-06-07T17:26:31.568Z,55.06
2019-06-07T17:29:00.261Z,56.00
2019-06-07T17:31:28.242Z,56.86
2019-06-07T17:33:58.676Z,57.56
2019-06-07T17:36:26.238Z,58.73
2019-06-07T17:38:56.096Z,58.73
2019-06-07T17:41:25.214Z,58.52
2019-06-07T17:44:00.040Z,58.60
2019-06-07T17:46:28.043Z,58.89
2019-06-07T17:48:55.550Z,59.10
2019-06-07T17:51:26.397Z,59.17
2019-06-07T17:53:56.348Z,59.17
2019-06-07T17:56:25.078Z,59.71
2019-06-07T17:58:53.040Z,59.74
2019-06-07T18:01:20.684Z,59.81
2019-06-07T18:03:49.369Z,59.96
2019-06-07T18:06:17.485Z,60.01
2019-06-07T18:08:45.509Z,60.00
2019-06-07T18:11:13.106Z,59.88
2019-06-07T18:13:42.207Z,59.78
2019-06-07T18:16:10.164Z,59.72
2019-06-07T18:18:39.799Z,59.57
2019-06-07T18:21:09.803Z,59.58
2019-06-07T18:23:37.373Z,59.13
2019-06-07T18:26:10.221Z,59.13
2019-06-07T18:28:41.895Z,59.16
2019-06-07T18:31:10.523Z,59.05
2019-06-07T18:33:40.320Z,58.80
2019-06-07T18:36:09.712Z,58.80
2019-06-07T18:38:39.198Z,58.55
2019-06-07T18:41:09.168Z,57.97
2019-06-07T18:43:37.183Z,57.96
2019-06-07T18:46:06.470Z,57.96
2019-06-07T18:48:37.148Z,57.81
2019-06-07T18:51:05.201Z,57.67
2019-06-07T18:53:36.824Z,57.14
2019-06-07T18:56:04.431Z,57.14
2019-06-07T18:58:40.857Z,56.85
2019-06-07T19:01:08.517Z,56.85
2019-06-07T19:03:37.141Z,56.16
2019-06-07T19:06:04.979Z,55.83
2019-06-07T19:08:32.537Z,55.64
2019-06-07T19:11:07.322Z,54.82
2019-06-07T19:13:35.235Z,54.82
2019-06-07T19:16:04.474Z,54.98
2019-06-07T19:18:34.712Z,54.48
2019-06-07T19:21:02.620Z,54.31
2019-06-07T19:23:32.751Z,54.31
2019-06-07T19:26:01.695Z,53.68
2019-06-07T19:28:29.968Z,52.92
2019-06-07T19:31:02.618Z,52.92
2019-06-07T19:33:32.547Z,52.87
2019-06-07T19:36:01.582Z,52.67
2019-06-07T19:38:29.393Z,52.54
2019-06-07T19:40:57.982Z,51.86
2019-06-07T19:43:30.294Z,51.29
2019-06-07T19:45:58.253Z,51.67
2019-06-07T19:48:27.926Z,51.67
2019-06-07T19:50:56.873Z,50.78
2019-06-07T19:53:27.522Z,50.70
2019-06-07T19:55:59.180Z,50.46
2019-06-07T19:58:28.020Z,50.47
2019-06-07T20:00:57.840Z,51.30
2019-06-07T20:03:28.236Z,51.30
2019-06-07T20:05:56.056Z,51.36
2019-06-07T20:08:23.955Z,51.36
2019-06-07T20:10:51.853Z,51.39
2019-06-07T20:13:21.210Z,51.39
2019-06-07T20:15:51.629Z,50.91
2019-06-07T20:18:21.234Z,50.72
2019-06-07T20:20:48.692Z,50.56
2019-06-07T20:23:19.716Z,50.16
2019-06-07T20:25:47.256Z,50.46
2019-06-07T20:28:15.092Z,50.46
2019-06-07T20:30:46.858Z,50.35
2019-06-07T20:33:16.125Z,50.35
2019-06-07T20:35:44.042Z,49.66
2019-06-07T20:38:11.608Z,49.63
2019-06-07T20:40:42.611Z,49.54
2019-06-07T20:43:10.613Z,49.29
2019-06-07T20:45:43.763Z,49.29
2019-06-07T20:48:11.325Z,48.92
2019-06-07T20:50:39.227Z,49.20
2019-06-07T20:53:09.267Z,48.05
2019-06-07T20:55:39.473Z,48.05
2019-06-07T20:58:07.432Z,48.06
2019-06-07T21:00:35.249Z,48.06
2019-06-07T21:03:07.412Z,48.66
2019-06-07T21:05:36.246Z,48.54
2019-06-07T21:08:04.791Z,48.54
2019-06-07T21:10:33.089Z,48.88
2019-06-07T21:13:03.855Z,48.90
2019-06-07T21:15:30.690Z,48.87
2019-06-07T21:17:58.363Z,48.84
2019-06-07T21:20:27.739Z,49.02
2019-06-07T21:22:55.720Z,49.47
2019-06-07T21:25:23.285Z,49.66
2019-06-07T21:27:52.692Z,49.66
2019-06-07T21:30:20.202Z,49.39
2019-06-07T21:32:48.128Z,49.41
2019-06-07T21:35:15.652Z,49.42
2019-06-07T21:37:43.386Z,49.21
2019-06-07T21:40:12.233Z,49.46
2019-06-07T21:42:40.206Z,49.46
2019-06-07T21:45:08.303Z,49.34
2019-06-07T21:47:37.119Z,49.37
2019-06-07T21:50:06.936Z,49.60
2019-06-07T21:52:34.889Z,49.20
2019-06-07T21:55:02.903Z,49.20
2019-06-07T21:57:33.126Z,49.36
2019-06-07T22:00:00.671Z,49.38
2019-06-07T22:02:37.759Z,49.36
2019-06-07T22:05:05.665Z,49.41
2019-06-07T22:07:33.394Z,49.37
2019-06-07T22:10:01.366Z,49.40
2019-06-07T22:12:29.030Z,49.47
2019-06-07T22:14:57.009Z,49.49
2019-06-07T22:17:25.075Z,49.76
2019-06-07T22:19:52.617Z,49.76
2019-06-07T22:22:20.381Z,49.52
2019-06-07T22:24:48.047Z,49.54
2019-06-07T22:27:21.092Z,49.55
2019-06-07T22:29:50.601Z,49.74
2019-06-07T22:32:21.376Z,49.74
2019-06-07T22:34:51.802Z,49.66
2019-06-07T22:37:23.631Z,49.49
2019-06-07T22:39:51.019Z,49.49
2019-06-07T22:42:21.339Z,49.89
2019-06-07T22:44:51.144Z,49.96
2019-06-07T22:47:18.703Z,49.96
2019-06-07T22:49:48.622Z,50.36
2019-06-07T22:52:20.345Z,50.54
2019-06-07T22:54:49.788Z,50.69
2019-06-07T22:57:22.011Z,50.77
2019-06-07T22:59:50.047Z,50.88
2019-06-07T23:02:18.829Z,51.07
2019-06-07T23:04:46.786Z,51.16
2019-06-07T23:07:14.949Z,51.20
2019-06-07T23:09:42.918Z,51.25
2019-06-07T23:12:11.095Z,51.25
2019-06-07T23:14:38.899Z,51.24
2019-06-07T23:17:09.468Z,51.36
2019-06-07T23:19:37.662Z,51.49
2019-06-07T23:22:05.125Z,51.58
2019-06-07T23:24:35.246Z,51.61
2019-06-07T23:27:03.523Z,51.65
2019-06-07T23:29:34.154Z,51.77
2019-06-07T23:32:02.214Z,51.82
2019-06-07T23:34:38.636Z,52.06
2019-06-07T23:37:06.346Z,52.06
2019-06-07T23:39:35.953Z,52.12
2019-06-07T23:42:03.457Z,52.03
2019-06-07T23:44:31.610Z,52.01
2019-06-07T23:47:10.723Z,52.49
2019-06-07T23:49:28.500Z,52.49
2019-06-07T23:51:56.220Z,52.31
2019-06-07T23:54:25.900Z,52.38
2019-06-07T23:56:57.835Z,52.34
2019-06-07T23:59:25.566Z,52.34
